sensor_id;sensor_type;location;lat;lon;timestamp;P1;durP1;ratioP1;P2;durP2;ratioP2
15297;SDS011;7750;48.796;9.026;2024-01-16T02:10:49;8.43;;;5.37;;
15297;SDS011;7750;48.796;9.026;2024-01-16T02:15:50;10.27;;;5.73;;
15297;SDS011;7750;48.796;9.026;2024-01-16T02:20:51;11.53;;;6.00;;
15297;SDS011;7750;48.796;9.026;2024-01-16T02:25:52;10.00;;;6.10;;
15297;SDS011;7750;48.796;9.026;2024-01-16T02:30:53;7.53;;;5.60;;
15297;SDS011;7750;48.796;9.026;2024-01-16T02:35:53;10.33;;;6.43;;
15297;SDS011;7750;48.796;9.026;2024-01-16T02:40:54;6.80;;;4.47;;
15297;SDS011;7750;48.796;9.026;2024-01-16T02:45:55;9.33;;;5.40;;
15297;SDS011;7750;48.796;9.026;2024-01-16T02:50:55;8.13;;;5.33;;
15297;SDS011;7750;48.796;9.026;2024-01-16T02:55:56;9.47;;;6.10;;
15297;SDS011;7750;48.796;9.026;2024-01-16T03:01:00;7.10;;;5.27;;
15297;SDS011;7750;48.796;9.026;2024-01-16T03:06:00;9.27;;;5.80;;
15297;SDS011;7750;48.796;9.026;2024-01-16T03:11:01;7.40;;;4.93;;
15297;SDS011;7750;48.796;9.026;2024-01-16T03:16:06;10.73;;;5.67;;
15297;SDS011;7750;48.796;9.026;2024-01-16T03:21:07;7.87;;;5.90;;
15297;SDS011;7750;48.796;9.026;2024-01-16T03:26:12;8.53;;;6.10;;
15297;SDS011;7750;48.796;9.026;2024-01-16T03:31:14;7.33;;;5.30;;
15297;SDS011;7750;48.796;9.026;2024-01-16T03:36:15;9.80;;;5.43;;
15297;SDS011;7750;48.796;9.026;2024-01-16T03:41:15;6.17;;;4.90;;
15297;SDS011;7750;48.796;9.026;2024-01-16T03:46:16;10.50;;;5.30;;
15297;SDS011;7750;48.796;9.026;2024-01-16T03:51:17;6.83;;;4.70;;
15297;SDS011;7750;48.796;9.026;2024-01-16T04:22:05;6.27;;;4.27;;
15297;SDS011;7750;48.796;9.026;2024-01-16T04:27:06;7.67;;;4.93;;
15297;SDS011;7750;48.796;9.026;2024-01-16T04:32:06;7.13;;;4.53;;
15297;SDS011;7750;48.796;9.026;2024-01-16T04:37:08;8.50;;;5.87;;
15297;SDS011;7750;48.796;9.026;2024-01-16T04:42:08;7.10;;;4.67;;
15297;SDS011;7750;48.796;9.026;2024-01-16T04:47:10;7.10;;;4.83;;
15297;SDS011;7750;48.796;9.026;2024-01-16T04:52:11;7.00;;;4.80;;
15297;SDS011;7750;48.796;9.026;2024-01-16T04:57:12;8.97;;;5.13;;
15297;SDS011;7750;48.796;9.026;2024-01-16T05:02:12;6.80;;;4.47;;
15297;SDS011;7750;48.796;9.026;2024-01-16T05:07:14;6.57;;;4.30;;
15297;SDS011;7750;48.796;9.026;2024-01-16T05:12:17;5.90;;;4.00;;
15297;SDS011;7750;48.796;9.026;2024-01-16T05:17:20;10.83;;;4.60;;
15297;SDS011;7750;48.796;9.026;2024-01-16T05:22:20;8.90;;;5.37;;
15297;SDS011;7750;48.796;9.026;2024-01-16T05:27:21;6.93;;;4.40;;
15297;SDS011;7750;48.796;9.026;2024-01-16T05:32:22;10.60;;;6.53;;
15297;SDS011;7750;48.796;9.026;2024-01-16T05:37:22;8.10;;;5.30;;
15297;SDS011;7750;48.796;9.026;2024-01-16T05:42:23;8.83;;;4.80;;
15297;SDS011;7750;48.796;9.026;2024-01-16T05:47:24;6.60;;;4.67;;
15297;SDS011;7750;48.796;9.026;2024-01-16T05:52:27;7.67;;;4.77;;
15297;SDS011;7750;48.796;9.026;2024-01-16T05:57:28;6.10;;;4.23;;
15297;SDS011;7750;48.796;9.026;2024-01-16T06:02:33;8.10;;;5.10;;
15297;SDS011;7750;48.796;9.026;2024-01-16T06:07:35;6.57;;;4.60;;
15297;SDS011;7750;48.796;9.026;2024-01-16T06:12:36;6.20;;;3.83;;
15297;SDS011;7750;48.796;9.026;2024-01-16T06:17:38;6.17;;;4.43;;
15297;SDS011;7750;48.796;9.026;2024-01-16T06:22:38;7.87;;;4.90;;
15297;SDS011;7750;48.796;9.026;2024-01-16T06:27:40;7.30;;;4.93;;
15297;SDS011;7750;48.796;9.026;2024-01-16T06:32:41;6.27;;;4.57;;
15297;SDS011;7750;48.796;9.026;2024-01-16T06:37:42;8.83;;;5.53;;
15297;SDS011;7750;48.796;9.026;2024-01-16T06:42:48;8.03;;;5.20;;
15297;SDS011;7750;48.796;9.026;2024-01-16T06:47:48;8.37;;;5.13;;
15297;SDS011;7750;48.796;9.026;2024-01-16T06:52:49;7.17;;;4.30;;
15297;SDS011;7750;48.796;9.026;2024-01-16T06:57:50;5.90;;;4.40;;
15297;SDS011;7750;48.796;9.026;2024-01-16T07:02:52;9.10;;;5.07;;
15297;SDS011;7750;48.796;9.026;2024-01-16T07:13:07;7.20;;;5.03;;
15297;SDS011;7750;48.796;9.026;2024-01-16T07:18:12;7.00;;;4.90;;
15297;SDS011;7750;48.796;9.026;2024-01-16T07:23:13;11.10;;;5.87;;
15297;SDS011;7750;48.796;9.026;2024-01-16T07:28:14;6.53;;;4.63;;
15297;SDS011;7750;48.796;9.026;2024-01-16T07:33:16;6.40;;;4.17;;
15297;SDS011;7750;48.796;9.026;2024-01-16T07:38:16;9.17;;;5.37;;
15297;SDS011;7750;48.796;9.026;2024-01-16T07:43:19;7.10;;;4.63;;
15297;SDS011;7750;48.796;9.026;2024-01-16T07:48:21;8.10;;;4.80;;
15297;SDS011;7750;48.796;9.026;2024-01-16T07:53:23;6.97;;;4.23;;
15297;SDS011;7750;48.796;9.026;2024-01-16T07:58:24;9.00;;;4.27;;
15297;SDS011;7750;48.796;9.026;2024-01-16T08:03:46;7.03;;;4.70;;
15297;SDS011;7750;48.796;9.026;2024-01-16T08:08:48;7.53;;;4.50;;
15297;SDS011;7750;48.796;9.026;2024-01-16T08:13:49;9.20;;;5.60;;
15297;SDS011;7750;48.796;9.026;2024-01-16T08:18:50;11.70;;;4.63;;
15297;SDS011;7750;48.796;9.026;2024-01-16T08:23:51;11.43;;;5.57;;
15297;SDS011;7750;48.796;9.026;2024-01-16T08:28:52;11.13;;;4.60;;
15297;SDS011;7750;48.796;9.026;2024-01-16T08:33:55;4.93;;;3.77;;
15297;SDS011;7750;48.796;9.026;2024-01-16T08:38:57;7.20;;;4.20;;
15297;SDS011;7750;48.796;9.026;2024-01-16T08:43:59;5.93;;;4.43;;
15297;SDS011;7750;48.796;9.026;2024-01-16T08:48:59;7.10;;;3.93;;
15297;SDS011;7750;48.796;9.026;2024-01-16T08:54:00;6.43;;;4.53;;
15297;SDS011;7750;48.796;9.026;2024-01-16T08:59:02;7.20;;;5.00;;
15297;SDS011;7750;48.796;9.026;2024-01-16T09:04:03;8.20;;;5.10;;
15297;SDS011;7750;48.796;9.026;2024-01-16T09:09:06;7.83;;;4.83;;
15297;SDS011;7750;48.796;9.026;2024-01-16T09:19:19;6.30;;;4.67;;
15297;SDS011;7750;48.796;9.026;2024-01-16T09:24:20;7.30;;;4.87;;
15297;SDS011;7750;48.796;9.026;2024-01-16T09:29:20;7.97;;;5.20;;
15297;SDS011;7750;48.796;9.026;2024-01-16T09:34:24;8.80;;;5.93;;
15297;SDS011;7750;48.796;9.026;2024-01-16T09:39:25;11.77;;;5.37;;
15297;SDS011;7750;48.796;9.026;2024-01-16T09:44:25;7.50;;;4.80;;
15297;SDS011;7750;48.796;9.026;2024-01-16T09:49:27;9.77;;;5.97;;
15297;SDS011;7750;48.796;9.026;2024-01-16T09:54:29;10.77;;;5.67;;
15297;SDS011;7750;48.796;9.026;2024-01-16T09:59:30;8.17;;;4.50;;
15297;SDS011;7750;48.796;9.026;2024-01-16T10:04:32;8.07;;;5.63;;
15297;SDS011;7750;48.796;9.026;2024-01-16T10:09:34;13.60;;;5.03;;
15297;SDS011;7750;48.796;9.026;2024-01-16T10:14:35;7.93;;;5.23;;
15297;SDS011;7750;48.796;9.026;2024-01-16T10:19:37;8.53;;;5.93;;
15297;SDS011;7750;48.796;9.026;2024-01-16T10:25:03;9.17;;;5.13;;
15297;SDS011;7750;48.796;9.026;2024-01-16T10:30:05;8.20;;;5.80;;
15297;SDS011;7750;48.796;9.026;2024-01-16T10:35:10;6.13;;;4.67;;
15297;SDS011;7750;48.796;9.026;2024-01-16T10:40:16;6.80;;;4.50;;
15297;SDS011;7750;48.796;9.026;2024-01-16T10:45:18;7.33;;;4.53;;
15297;SDS011;7750;48.796;9.026;2024-01-16T10:50:22;8.53;;;5.50;;
15297;SDS011;7750;48.796;9.026;2024-01-16T10:55:23;6.60;;;4.60;;
15297;SDS011;7750;48.796;9.026;2024-01-16T11:00:24;7.63;;;4.73;;
15297;SDS011;7750;48.796;9.026;2024-01-16T11:05:25;9.73;;;5.40;;
15297;SDS011;7750;48.796;9.026;2024-01-16T11:10:27;8.43;;;4.70;;
15297;SDS011;7750;48.796;9.026;2024-01-16T11:15:28;14.20;;;4.30;;
15297;SDS011;7750;48.796;9.026;2024-01-16T11:20:32;9.30;;;5.03;;
15297;SDS011;7750;48.796;9.026;2024-01-16T11:25:34;10.50;;;4.83;;
15297;SDS011;7750;48.796;9.026;2024-01-16T11:30:35;6.70;;;4.17;;
15297;SDS011;7750;48.796;9.026;2024-01-16T11:35:36;6.33;;;4.10;;
15297;SDS011;7750;48.796;9.026;2024-01-16T11:40:38;6.20;;;3.67;;
15297;SDS011;7750;48.796;9.026;2024-01-16T11:50:39;5.37;;;3.57;;
15297;SDS011;7750;48.796;9.026;2024-01-16T11:55:50;5.73;;;2.90;;
15297;SDS011;7750;48.796;9.026;2024-01-16T12:01:00;6.40;;;2.97;;
15297;SDS011;7750;48.796;9.026;2024-01-16T12:06:01;6.23;;;3.50;;
15297;SDS011;7750;48.796;9.026;2024-01-16T12:11:03;8.83;;;3.53;;
15297;SDS011;7750;48.796;9.026;2024-01-16T12:16:04;5.50;;;2.80;;
15297;SDS011;7750;48.796;9.026;2024-01-16T12:21:09;7.80;;;2.83;;
15297;SDS011;7750;48.796;9.026;2024-01-16T12:26:18;5.30;;;2.70;;
15297;SDS011;7750;48.796;9.026;2024-01-16T12:31:20;5.23;;;2.83;;
15297;SDS011;7750;48.796;9.026;2024-01-16T12:36:21;7.30;;;3.03;;
15297;SDS011;7750;48.796;9.026;2024-01-16T12:41:21;4.23;;;2.37;;
15297;SDS011;7750;48.796;9.026;2024-01-16T12:46:24;3.70;;;2.40;;
15297;SDS011;7750;48.796;9.026;2024-01-16T12:51:25;7.40;;;2.50;;
15297;SDS011;7750;48.796;9.026;2024-01-16T12:56:25;4.47;;;3.10;;
15297;SDS011;7750;48.796;9.026;2024-01-16T13:01:27;10.20;;;3.53;;
15297;SDS011;7750;48.796;9.026;2024-01-16T13:06:29;3.80;;;2.37;;
15297;SDS011;7750;48.796;9.026;2024-01-16T13:11:29;5.87;;;3.10;;
15297;SDS011;7750;48.796;9.026;2024-01-16T13:16:30;3.60;;;2.80;;
15297;SDS011;7750;48.796;9.026;2024-01-16T13:21:31;8.83;;;3.03;;
15297;SDS011;7750;48.796;9.026;2024-01-16T13:26:32;5.63;;;2.87;;
15297;SDS011;7750;48.796;9.026;2024-01-16T13:31:32;3.83;;;2.53;;
15297;SDS011;7750;48.796;9.026;2024-01-16T13:36:33;4.13;;;2.70;;
15297;SDS011;7750;48.796;9.026;2024-01-16T13:41:33;3.70;;;2.57;;
15297;SDS011;7750;48.796;9.026;2024-01-16T13:46:34;6.03;;;2.63;;
15297;SDS011;7750;48.796;9.026;2024-01-16T13:51:36;6.43;;;3.00;;
15297;SDS011;7750;48.796;9.026;2024-01-16T13:56:36;5.67;;;2.53;;
15297;SDS011;7750;48.796;9.026;2024-01-16T14:01:38;5.83;;;2.57;;
15297;SDS011;7750;48.796;9.026;2024-01-16T14:06:39;4.30;;;2.63;;
15297;SDS011;7750;48.796;9.026;2024-01-16T14:11:39;5.83;;;2.70;;
15297;SDS011;7750;48.796;9.026;2024-01-16T14:16:40;4.77;;;2.30;;
15297;SDS011;7750;48.796;9.026;2024-01-16T14:21:41;4.30;;;2.73;;
15297;SDS011;7750;48.796;9.026;2024-01-16T14:26:42;5.03;;;2.97;;
15297;SDS011;7750;48.796;9.026;2024-01-16T14:31:46;4.00;;;2.20;;
15297;SDS011;7750;48.796;9.026;2024-01-16T14:36:49;5.00;;;3.07;;
15297;SDS011;7750;48.796;9.026;2024-01-16T14:41:50;5.17;;;3.00;;
15297;SDS011;7750;48.796;9.026;2024-01-16T14:46:53;5.53;;;3.33;;
15297;SDS011;7750;48.796;9.026;2024-01-16T14:51:54;7.03;;;3.47;;
15297;SDS011;7750;48.796;9.026;2024-01-16T14:56:54;5.10;;;2.90;;
15297;SDS011;7750;48.796;9.026;2024-01-16T15:01:55;4.80;;;2.83;;
15297;SDS011;7750;48.796;9.026;2024-01-16T15:06:56;5.63;;;3.07;;
15297;SDS011;7750;48.796;9.026;2024-01-16T15:11:56;4.77;;;3.03;;
15297;SDS011;7750;48.796;9.026;2024-01-16T15:16:57;6.00;;;3.70;;
15297;SDS011;7750;48.796;9.026;2024-01-16T15:21:58;7.50;;;3.80;;
15297;SDS011;7750;48.796;9.026;2024-01-16T15:26:58;4.57;;;3.10;;
15297;SDS011;7750;48.796;9.026;2024-01-16T15:31:59;5.20;;;3.53;;
15297;SDS011;7750;48.796;9.026;2024-01-16T15:37:00;5.60;;;4.03;;
15297;SDS011;7750;48.796;9.026;2024-01-16T15:42:01;10.80;;;4.40;;
15297;SDS011;7750;48.796;9.026;2024-01-16T15:47:02;5.20;;;3.63;;
15297;SDS011;7750;48.796;9.026;2024-01-16T15:52:03;7.53;;;4.10;;
15297;SDS011;7750;48.796;9.026;2024-01-16T15:57:04;4.83;;;3.67;;
15297;SDS011;7750;48.796;9.026;2024-01-16T16:02:05;7.93;;;4.53;;
15297;SDS011;7750;48.796;9.026;2024-01-16T16:07:06;8.33;;;5.00;;
15297;SDS011;7750;48.796;9.026;2024-01-16T16:17:19;7.97;;;5.70;;
15297;SDS011;7750;48.796;9.026;2024-01-16T16:22:19;9.43;;;5.40;;
15297;SDS011;7750;48.796;9.026;2024-01-16T16:27:24;9.10;;;5.27;;
15297;SDS011;7750;48.796;9.026;2024-01-16T16:32:26;10.10;;;6.23;;
15297;SDS011;7750;48.796;9.026;2024-01-16T16:37:29;9.87;;;7.27;;
15297;SDS011;7750;48.796;9.026;2024-01-16T16:42:30;10.57;;;6.90;;
15297;SDS011;7750;48.796;9.026;2024-01-16T16:47:33;10.80;;;6.03;;
15297;SDS011;7750;48.796;9.026;2024-01-16T16:52:33;15.10;;;6.97;;
15297;SDS011;7750;48.796;9.026;2024-01-16T16:57:36;7.20;;;4.77;;
15297;SDS011;7750;48.796;9.026;2024-01-16T17:02:38;7.43;;;4.87;;
